Aviation Digital Data Service (ADDS)

Output produced by METARs form (1058 UTC 19 June 2019)
found at http://www.aviationweather.gov/metar/data/
 
TAF MZBZ 190900Z 1912/2012 11010KT 9999 SCT023 
     PROB30 
     TEMPO 1912/1915 5000 SHRA BKN015 
     PROB30 
     TEMPO 2006/2015 5000 SHRA BKN015